sensor_id;sensor_type;location;lat;lon;timestamp;pressure;altitude;pressure_sealevel;temperature;humidity
39265;BME280;42646;51.910;7.724;2023-12-20T00:01:15;100729.31;;;7.27;100.00
39265;BME280;42646;51.910;7.724;2023-12-20T00:03:43;100728.69;;;7.23;100.00
39265;BME280;42646;51.910;7.724;2023-12-20T00:06:10;100721.97;;;7.19;100.00
39265;BME280;42646;51.910;7.724;2023-12-20T00:08:39;100726.50;;;7.17;100.00
39265;BME280;42646;51.910;7.724;2023-12-20T00:11:07;100736.50;;;7.13;100.00
39265;BME280;42646;51.910;7.724;2023-12-20T00:13:35;100743.78;;;7.10;100.00
39265;BME280;42646;51.910;7.724;2023-12-20T00:16:03;100734.31;;;7.07;100.00
39265;BME280;42646;51.910;7.724;2023-12-20T00:18:31;100749.34;;;7.07;100.00
39265;BME280;42646;51.910;7.724;2023-12-20T00:20:58;100737.06;;;7.06;100.00
39265;BME280;42646;51.910;7.724;2023-12-20T00:23:26;100737.16;;;7.04;100.00
39265;BME280;42646;51.910;7.724;2023-12-20T00:25:55;100740.88;;;7.02;100.00
39265;BME280;42646;51.910;7.724;2023-12-20T00:28:22;100749.78;;;7.01;100.00
39265;BME280;42646;51.910;7.724;2023-12-20T00:30:50;100750.84;;;6.98;100.00
39265;BME280;42646;51.910;7.724;2023-12-20T00:33:18;100758.78;;;6.98;100.00
39265;BME280;42646;51.910;7.724;2023-12-20T00:35:46;100757.81;;;6.99;100.00
39265;BME280;42646;51.910;7.724;2023-12-20T00:38:14;100750.84;;;6.98;100.00
39265;BME280;42646;51.910;7.724;2023-12-20T00:40:42;100753.59;;;6.96;100.00
39265;BME280;42646;51.910;7.724;2023-12-20T00:43:11;100754.00;;;7.03;100.00
39265;BME280;42646;51.910;7.724;2023-12-20T00:45:39;100744.59;;;6.99;100.00
39265;BME280;42646;51.910;7.724;2023-12-20T00:48:07;100747.22;;;6.99;100.00
39265;BME280;42646;51.910;7.724;2023-12-20T00:50:34;100752.53;;;6.99;100.00
39265;BME280;42646;51.910;7.724;2023-12-20T00:53:03;100759.41;;;7.02;100.00
39265;BME280;42646;51.910;7.724;2023-12-20T00:55:30;100755.78;;;7.03;100.00
39265;BME280;42646;51.910;7.724;2023-12-20T00:57:58;100754.22;;;7.00;100.00
39265;BME280;42646;51.910;7.724;2023-12-20T01:00:28;100753.28;;;7.01;100.00
39265;BME280;42646;51.910;7.724;2023-12-20T01:02:55;100756.88;;;7.00;100.00
39265;BME280;42646;51.910;7.724;2023-12-20T01:05:23;100759.53;;;7.00;100.00
39265;BME280;42646;51.910;7.724;2023-12-20T01:07:50;100761.28;;;7.00;100.00
39265;BME280;42646;51.910;7.724;2023-12-20T01:10:18;100764.69;;;7.02;100.00
39265;BME280;42646;51.910;7.724;2023-12-20T01:12:46;100762.63;;;6.94;100.00
39265;BME280;42646;51.910;7.724;2023-12-20T01:15:14;100760.91;;;6.93;100.00
39265;BME280;42646;51.910;7.724;2023-12-20T01:17:43;100758.50;;;6.90;100.00
39265;BME280;42646;51.910;7.724;2023-12-20T01:20:11;100755.13;;;6.88;100.00
39265;BME280;42646;51.910;7.724;2023-12-20T01:22:38;100755.22;;;6.86;100.00
39265;BME280;42646;51.910;7.724;2023-12-20T01:25:07;100753.53;;;6.85;100.00
39265;BME280;42646;51.910;7.724;2023-12-20T01:27:34;100758.09;;;6.83;100.00
39265;BME280;42646;51.910;7.724;2023-12-20T01:30:02;100759.91;;;6.83;100.00
39265;BME280;42646;51.910;7.724;2023-12-20T01:32:31;100769.22;;;6.76;100.00
39265;BME280;42646;51.910;7.724;2023-12-20T01:35:00;100765.72;;;6.75;100.00
39265;BME280;42646;51.910;7.724;2023-12-20T01:37:29;100760.06;;;6.68;100.00
39265;BME280;42646;51.910;7.724;2023-12-20T01:39:56;100768.22;;;6.65;100.00
39265;BME280;42646;51.910;7.724;2023-12-20T01:42:25;100765.66;;;6.64;100.00
39265;BME280;42646;51.910;7.724;2023-12-20T01:44:52;100766.22;;;6.56;100.00
39265;BME280;42646;51.910;7.724;2023-12-20T01:47:20;100759.38;;;6.54;100.00
39265;BME280;42646;51.910;7.724;2023-12-20T01:49:48;100756.84;;;6.52;100.00
39265;BME280;42646;51.910;7.724;2023-12-20T01:52:19;100761.69;;;6.46;100.00
39265;BME280;42646;51.910;7.724;2023-12-20T01:54:47;100761.81;;;6.44;100.00
39265;BME280;42646;51.910;7.724;2023-12-20T01:57:16;100760.25;;;6.41;100.00
39265;BME280;42646;51.910;7.724;2023-12-20T01:59:43;100764.78;;;6.39;100.00
39265;BME280;42646;51.910;7.724;2023-12-20T02:02:12;100753.69;;;6.34;100.00
39265;BME280;42646;51.910;7.724;2023-12-20T02:04:39;100749.47;;;6.32;100.00
39265;BME280;42646;51.910;7.724;2023-12-20T02:07:08;100757.53;;;6.30;100.00
39265;BME280;42646;51.910;7.724;2023-12-20T02:09:38;100758.47;;;6.29;100.00
39265;BME280;42646;51.910;7.724;2023-12-20T02:12:05;100759.75;;;6.24;100.00
39265;BME280;42646;51.910;7.724;2023-12-20T02:14:33;100748.34;;;6.23;100.00
39265;BME280;42646;51.910;7.724;2023-12-20T02:17:01;100750.63;;;6.28;100.00
39265;BME280;42646;51.910;7.724;2023-12-20T02:19:29;100743.25;;;6.20;100.00
39265;BME280;42646;51.910;7.724;2023-12-20T02:22:07;100745.06;;;6.20;100.00
39265;BME280;42646;51.910;7.724;2023-12-20T02:24:35;100751.50;;;6.15;100.00
39265;BME280;42646;51.910;7.724;2023-12-20T02:27:03;100755.09;;;6.14;100.00
39265;BME280;42646;51.910;7.724;2023-12-20T02:29:33;100751.50;;;6.15;100.00
39265;BME280;42646;51.910;7.724;2023-12-20T02:32:01;100751.50;;;6.15;100.00
39265;BME280;42646;51.910;7.724;2023-12-20T02:34:29;100756.78;;;6.15;100.00
39265;BME280;42646;51.910;7.724;2023-12-20T02:36:57;100751.50;;;6.15;100.00
39265;BME280;42646;51.910;7.724;2023-12-20T02:39:26;100755.81;;;6.16;100.00
39265;BME280;42646;51.910;7.724;2023-12-20T02:41:53;100749.69;;;6.16;100.00
39265;BME280;42646;51.910;7.724;2023-12-20T02:44:21;100752.03;;;6.21;100.00
39265;BME280;42646;51.910;7.724;2023-12-20T02:46:48;100752.16;;;6.19;100.00
39265;BME280;42646;51.910;7.724;2023-12-20T02:49:16;100754.91;;;6.18;100.00
39265;BME280;42646;51.910;7.724;2023-12-20T02:51:44;100751.91;;;6.22;100.00
39265;BME280;42646;51.910;7.724;2023-12-20T02:54:12;100745.78;;;6.22;100.00
39265;BME280;42646;51.910;7.724;2023-12-20T02:56:42;100744.75;;;6.24;100.00
39265;BME280;42646;51.910;7.724;2023-12-20T02:59:09;100747.69;;;6.20;100.00
39265;BME280;42646;51.910;7.724;2023-12-20T03:01:41;100748.13;;;6.13;100.00
39265;BME280;42646;51.910;7.724;2023-12-20T03:04:09;100745.38;;;6.15;100.00
39265;BME280;42646;51.910;7.724;2023-12-20T03:06:37;100744.66;;;6.13;100.00
39265;BME280;42646;51.910;7.724;2023-12-20T03:09:05;100736.50;;;6.16;100.00
39265;BME280;42646;51.910;7.724;2023-12-20T03:11:33;100732.06;;;6.16;100.00
39265;BME280;42646;51.910;7.724;2023-12-20T03:14:02;100736.28;;;6.19;100.00
39265;BME280;42646;51.910;7.724;2023-12-20T03:16:29;100740.84;;;6.17;100.00
39265;BME280;42646;51.910;7.724;2023-12-20T03:19:02;100735.03;;;6.25;100.00
39265;BME280;42646;51.910;7.724;2023-12-20T03:21:30;100733.53;;;6.21;100.00
39265;BME280;42646;51.910;7.724;2023-12-20T03:23:57;100727.72;;;6.15;100.00
39265;BME280;42646;51.910;7.724;2023-12-20T03:26:25;100733.13;;;6.14;100.00
39265;BME280;42646;51.910;7.724;2023-12-20T03:28:52;100733.00;;;6.15;100.00
39265;BME280;42646;51.910;7.724;2023-12-20T03:31:21;100740.94;;;6.15;100.00
39265;BME280;42646;51.910;7.724;2023-12-20T03:33:49;100732.56;;;6.22;100.00
39265;BME280;42646;51.910;7.724;2023-12-20T03:36:17;100735.03;;;6.25;100.00
39265;BME280;42646;51.910;7.724;2023-12-20T03:38:45;100726.56;;;6.20;100.00
39265;BME280;42646;51.910;7.724;2023-12-20T03:41:13;100724.13;;;6.16;100.00
39265;BME280;42646;51.910;7.724;2023-12-20T03:43:41;100714.09;;;6.22;100.00
39265;BME280;42646;51.910;7.724;2023-12-20T03:46:08;100723.09;;;6.19;100.00
39265;BME280;42646;51.910;7.724;2023-12-20T03:48:37;100707.25;;;6.19;100.00
39265;BME280;42646;51.910;7.724;2023-12-20T03:51:05;100712.63;;;6.18;100.00
39265;BME280;42646;51.910;7.724;2023-12-20T03:53:32;100715.28;;;6.18;100.00
39265;BME280;42646;51.910;7.724;2023-12-20T03:56:00;100720.66;;;6.16;100.00
39265;BME280;42646;51.910;7.724;2023-12-20T03:58:28;100726.28;;;6.11;100.00
39265;BME280;42646;51.910;7.724;2023-12-20T04:00:55;100720.88;;;6.13;100.00
39265;BME280;42646;51.910;7.724;2023-12-20T04:03:23;100713.16;;;6.10;100.00
39265;BME280;42646;51.910;7.724;2023-12-20T04:05:52;100710.63;;;6.08;100.00
39265;BME280;42646;51.910;7.724;2023-12-20T04:08:20;100716.63;;;6.10;100.00
39265;BME280;42646;51.910;7.724;2023-12-20T04:10:47;100708.06;;;6.20;100.00
39265;BME280;42646;51.910;7.724;2023-12-20T04:13:15;100704.91;;;6.14;100.00
39265;BME280;42646;51.910;7.724;2023-12-20T04:15:43;100719.09;;;6.13;100.00
39265;BME280;42646;51.910;7.724;2023-12-20T04:18:10;100714.00;;;6.10;100.00
39265;BME280;42646;51.910;7.724;2023-12-20T04:20:38;100715.38;;;6.16;100.00
39265;BME280;42646;51.910;7.724;2023-12-20T04:23:07;100718.44;;;6.10;100.00
39265;BME280;42646;51.910;7.724;2023-12-20T04:25:35;100731.03;;;6.06;100.00
39265;BME280;42646;51.910;7.724;2023-12-20T04:28:03;100723.94;;;6.07;100.00
39265;BME280;42646;51.910;7.724;2023-12-20T04:30:31;100729.84;;;6.10;100.00
39265;BME280;42646;51.910;7.724;2023-12-20T04:32:58;100726.16;;;6.13;100.00
39265;BME280;42646;51.910;7.724;2023-12-20T04:35:26;100729.53;;;6.15;100.00
39265;BME280;42646;51.910;7.724;2023-12-20T04:38:04;100724.69;;;6.09;100.00
39265;BME280;42646;51.910;7.724;2023-12-20T04:40:33;100732.72;;;6.07;100.00
39265;BME280;42646;51.910;7.724;2023-12-20T04:43:00;100728.16;;;6.09;100.00
39265;BME280;42646;51.910;7.724;2023-12-20T04:45:28;100727.72;;;6.15;100.00
39265;BME280;42646;51.910;7.724;2023-12-20T04:47:56;100727.00;;;6.13;100.00
39265;BME280;42646;51.910;7.724;2023-12-20T04:50:23;100720.03;;;6.12;100.00
39265;BME280;42646;51.910;7.724;2023-12-20T04:52:51;100726.38;;;6.23;100.00
39265;BME280;42646;51.910;7.724;2023-12-20T04:55:19;100717.69;;;6.21;100.00
39265;BME280;42646;51.910;7.724;2023-12-20T04:57:48;100712.84;;;6.14;100.00
39265;BME280;42646;51.910;7.724;2023-12-20T05:00:16;100713.25;;;6.21;100.00
39265;BME280;42646;51.910;7.724;2023-12-20T05:02:43;100718.22;;;6.26;100.00
39265;BME280;42646;51.910;7.724;2023-12-20T05:05:11;100720.31;;;6.21;100.00
39265;BME280;42646;51.910;7.724;2023-12-20T05:07:39;100712.28;;;6.22;100.00
39265;BME280;42646;51.910;7.724;2023-12-20T05:10:07;100715.84;;;6.34;100.00
39265;BME280;42646;51.910;7.724;2023-12-20T05:12:35;100708.03;;;6.32;100.00
39265;BME280;42646;51.910;7.724;2023-12-20T05:15:06;100704.78;;;6.29;100.00
39265;BME280;42646;51.910;7.724;2023-12-20T05:17:34;100710.06;;;6.29;100.00
39265;BME280;42646;51.910;7.724;2023-12-20T05:20:02;100712.81;;;6.27;100.00
39265;BME280;42646;51.910;7.724;2023-12-20T05:22:30;100710.91;;;6.29;100.00
39265;BME280;42646;51.910;7.724;2023-12-20T05:24:58;100702.25;;;6.27;100.00
39265;BME280;42646;51.910;7.724;2023-12-20T05:27:25;100697.19;;;6.24;100.00
39265;BME280;42646;51.910;7.724;2023-12-20T05:29:53;100703.72;;;6.31;100.00
39265;BME280;42646;51.910;7.724;2023-12-20T05:32:25;100694.94;;;6.31;100.00
39265;BME280;42646;51.910;7.724;2023-12-20T05:34:53;100695.06;;;6.29;100.00
39265;BME280;42646;51.910;7.724;2023-12-20T05:37:20;100705.84;;;6.26;100.00
39265;BME280;42646;51.910;7.724;2023-12-20T05:39:48;100697.19;;;6.24;100.00
39265;BME280;42646;51.910;7.724;2023-12-20T05:42:16;100711.94;;;6.39;100.00
39265;BME280;42646;51.910;7.724;2023-12-20T05:44:43;100701.06;;;6.31;100.00
39265;BME280;42646;51.910;7.724;2023-12-20T05:47:11;100708.03;;;6.32;100.00
39265;BME280;42646;51.910;7.724;2023-12-20T05:49:40;100704.44;;;6.33;100.00
39265;BME280;42646;51.910;7.724;2023-12-20T05:52:07;100704.88;;;6.27;100.00
39265;BME280;42646;51.910;7.724;2023-12-20T05:54:35;100705.72;;;6.28;100.00
39265;BME280;42646;51.910;7.724;2023-12-20T05:57:03;100704.03;;;6.27;100.00
39265;BME280;42646;51.910;7.724;2023-12-20T05:59:31;100709.97;;;6.30;100.00
39265;BME280;42646;51.910;7.724;2023-12-20T06:01:59;100708.28;;;6.29;100.00
39265;BME280;42646;51.910;7.724;2023-12-20T06:04:26;100711.31;;;6.36;100.00
39265;BME280;42646;51.910;7.724;2023-12-20T06:06:55;100711.19;;;6.37;100.00
39265;BME280;42646;51.910;7.724;2023-12-20T06:09:23;100715.13;;;6.32;100.00
39265;BME280;42646;51.910;7.724;2023-12-20T06:11:51;100707.94;;;6.34;100.00
39265;BME280;42646;51.910;7.724;2023-12-20T06:14:19;100707.84;;;6.35;100.00
39265;BME280;42646;51.910;7.724;2023-12-20T06:16:46;100696.63;;;6.32;100.00
39265;BME280;42646;51.910;7.724;2023-12-20T06:19:14;100698.44;;;6.31;100.00
39265;BME280;42646;51.910;7.724;2023-12-20T06:21:42;100698.31;;;6.33;100.00
39265;BME280;42646;51.910;7.724;2023-12-20T06:24:12;100706.47;;;6.30;100.00
39265;BME280;42646;51.910;7.724;2023-12-20T06:26:40;100706.47;;;6.30;100.00
39265;BME280;42646;51.910;7.724;2023-12-20T06:29:08;100698.56;;;6.30;100.00
39265;BME280;42646;51.910;7.724;2023-12-20T06:31:36;100700.00;;;6.34;100.00
39265;BME280;42646;51.910;7.724;2023-12-20T06:34:04;100702.63;;;6.34;100.00
39265;BME280;42646;51.910;7.724;2023-12-20T06:36:31;100702.63;;;6.34;100.00
39265;BME280;42646;51.910;7.724;2023-12-20T06:38:59;100715.66;;;6.37;100.00
39265;BME280;42646;51.910;7.724;2023-12-20T06:41:28;100700.84;;;6.34;100.00
39265;BME280;42646;51.910;7.724;2023-12-20T06:43:55;100709.53;;;6.36;100.00
39265;BME280;42646;51.910;7.724;2023-12-20T06:46:24;100712.56;;;6.43;100.00
39265;BME280;42646;51.910;7.724;2023-12-20T06:48:52;100711.09;;;6.39;100.00
39265;BME280;42646;51.910;7.724;2023-12-20T06:51:19;100705.91;;;6.37;100.00
39265;BME280;42646;51.910;7.724;2023-12-20T06:53:47;100707.00;;;6.35;100.00
39265;BME280;42646;51.910;7.724;2023-12-20T06:56:15;100700.00;;;6.34;100.00
39265;BME280;42646;51.910;7.724;2023-12-20T06:58:46;100693.16;;;6.31;100.00
39265;BME280;42646;51.910;7.724;2023-12-20T07:01:15;100697.56;;;6.43;100.00
39265;BME280;42646;51.910;7.724;2023-12-20T07:03:43;100697.66;;;6.42;100.00
39265;BME280;42646;51.910;7.724;2023-12-20T07:06:11;100692.16;;;6.45;100.00
39265;BME280;42646;51.910;7.724;2023-12-20T07:08:40;100698.72;;;6.39;100.00
39265;BME280;42646;51.910;7.724;2023-12-20T07:11:07;100692.72;;;6.37;100.00
39265;BME280;42646;51.910;7.724;2023-12-20T07:13:35;100695.69;;;6.33;100.00
39265;BME280;42646;51.910;7.724;2023-12-20T07:16:05;100694.63;;;6.35;100.00
39265;BME280;42646;51.910;7.724;2023-12-20T07:18:32;100694.38;;;6.38;100.00
39265;BME280;42646;51.910;7.724;2023-12-20T07:21:00;100695.56;;;6.34;100.00
39265;BME280;42646;51.910;7.724;2023-12-20T07:23:28;100699.91;;;6.35;100.00
39265;BME280;42646;51.910;7.724;2023-12-20T07:25:56;100694.50;;;6.37;100.00
39265;BME280;42646;51.910;7.724;2023-12-20T07:28:23;100693.66;;;6.36;100.00
39265;BME280;42646;51.910;7.724;2023-12-20T07:30:51;100691.63;;;6.40;100.00
39265;BME280;42646;51.910;7.724;2023-12-20T07:33:20;100689.84;;;6.40;100.00
39265;BME280;42646;51.910;7.724;2023-12-20T07:35:48;100697.16;;;6.37;100.00
39265;BME280;42646;51.910;7.724;2023-12-20T07:38:18;100702.44;;;6.37;100.00
39265;BME280;42646;51.910;7.724;2023-12-20T07:40:45;100703.06;;;6.40;100.00
39265;BME280;42646;51.910;7.724;2023-12-20T07:43:13;100705.28;;;6.47;100.00
39265;BME280;42646;51.910;7.724;2023-12-20T07:45:41;100707.91;;;6.47;100.00
39265;BME280;42646;51.910;7.724;2023-12-20T07:48:09;100701.03;;;6.44;100.00
39265;BME280;42646;51.910;7.724;2023-12-20T07:50:38;100706.44;;;6.42;100.00
39265;BME280;42646;51.910;7.724;2023-12-20T07:53:06;100699.22;;;6.45;100.00
39265;BME280;42646;51.910;7.724;2023-12-20T07:55:33;100702.84;;;6.43;100.00
39265;BME280;42646;51.910;7.724;2023-12-20T07:58:01;100709.59;;;6.48;100.00
39265;BME280;42646;51.910;7.724;2023-12-20T08:00:29;100695.63;;;6.46;100.00
39265;BME280;42646;51.910;7.724;2023-12-20T08:02:56;100693.94;;;6.45;100.00
39265;BME280;42646;51.910;7.724;2023-12-20T08:05:24;100697.09;;;6.50;100.00
39265;BME280;42646;51.910;7.724;2023-12-20T08:07:53;100692.91;;;6.47;100.00
39265;BME280;42646;51.910;7.724;2023-12-20T08:10:21;100692.06;;;6.47;100.00
39265;BME280;42646;51.910;7.724;2023-12-20T08:12:48;100695.31;;;6.50;100.00
39265;BME280;42646;51.910;7.724;2023-12-20T08:15:16;100688.22;;;6.51;100.00
39265;BME280;42646;51.910;7.724;2023-12-20T08:17:44;100675.84;;;6.51;100.00
39265;BME280;42646;51.910;7.724;2023-12-20T08:20:12;100687.31;;;6.63;100.00
39265;BME280;42646;51.910;7.724;2023-12-20T08:22:48;100691.88;;;6.61;100.00
39265;BME280;42646;51.910;7.724;2023-12-20T08:25:17;100690.31;;;6.58;100.00
39265;BME280;42646;51.910;7.724;2023-12-20T08:27:45;100692.00;;;6.59;100.00
39265;BME280;42646;51.910;7.724;2023-12-20T08:30:13;100681.44;;;6.59;100.00
39265;BME280;42646;51.910;7.724;2023-12-20T08:32:40;100683.00;;;6.62;100.00
39265;BME280;42646;51.910;7.724;2023-12-20T08:35:08;100694.66;;;6.59;100.00
39265;BME280;42646;51.910;7.724;2023-12-20T08:37:36;100692.72;;;6.61;100.00
39265;BME280;42646;51.910;7.724;2023-12-20T08:40:05;100691.78;;;6.62;100.00
39265;BME280;42646;51.910;7.724;2023-12-20T08:42:35;100692.53;;;6.64;100.00
39265;BME280;42646;51.910;7.724;2023-12-20T08:45:03;100703.69;;;6.68;100.00
39265;BME280;42646;51.910;7.724;2023-12-20T08:47:31;100699.75;;;6.74;100.00
39265;BME280;42646;51.910;7.724;2023-12-20T08:49:59;100689.19;;;6.74;100.00
39265;BME280;42646;51.910;7.724;2023-12-20T08:52:28;100686.66;;;6.72;100.00
39265;BME280;42646;51.910;7.724;2023-12-20T08:54:56;100689.50;;;6.69;100.00
39265;BME280;42646;51.910;7.724;2023-12-20T08:57:24;100674.56;;;6.81;100.00
39265;BME280;42646;51.910;7.724;2023-12-20T08:59:53;100667.19;;;6.73;100.00
39265;BME280;42646;51.910;7.724;2023-12-20T09:02:20;100657.25;;;6.77;100.00
39265;BME280;42646;51.910;7.724;2023-12-20T09:04:48;100658.09;;;6.77;100.00
39265;BME280;42646;51.910;7.724;2023-12-20T09:07:25;100659.06;;;6.76;100.00
39265;BME280;42646;51.910;7.724;2023-12-20T09:09:54;100656.16;;;6.79;100.00
39265;BME280;42646;51.910;7.724;2023-12-20T09:12:21;100656.16;;;6.79;100.00
39265;BME280;42646;51.910;7.724;2023-12-20T09:14:50;100660.16;;;6.85;100.00
39265;BME280;42646;51.910;7.724;2023-12-20T09:17:19;100656.03;;;6.81;100.00
39265;BME280;42646;51.910;7.724;2023-12-20T09:19:49;100661.00;;;6.85;100.00
39265;BME280;42646;51.910;7.724;2023-12-20T09:22:19;100646.25;;;6.94;100.00
39265;BME280;42646;51.910;7.724;2023-12-20T09:24:46;100645.50;;;6.92;100.00
39265;BME280;42646;51.910;7.724;2023-12-20T09:27:14;100644.59;;;7.04;100.00
39265;BME280;42646;51.910;7.724;2023-12-20T09:29:42;100636.22;;;6.86;100.00
39265;BME280;42646;51.910;7.724;2023-12-20T09:32:09;100640.38;;;7.02;100.00
39265;BME280;42646;51.910;7.724;2023-12-20T09:34:38;100628.72;;;7.04;100.00
39265;BME280;42646;51.910;7.724;2023-12-20T09:37:08;100640.97;;;6.94;100.00
39265;BME280;42646;51.910;7.724;2023-12-20T09:39:36;100632.66;;;6.99;100.00
39265;BME280;42646;51.910;7.724;2023-12-20T09:42:04;100633.25;;;6.91;100.00
39265;BME280;42646;51.910;7.724;2023-12-20T09:44:33;100633.75;;;6.96;100.00
39265;BME280;42646;51.910;7.724;2023-12-20T09:47:03;100637.84;;;7.00;100.00
39265;BME280;42646;51.910;7.724;2023-12-20T09:49:32;100638.81;;;7.10;100.00
39265;BME280;42646;51.910;7.724;2023-12-20T09:52:03;100639.19;;;7.17;100.00
39265;BME280;42646;51.910;7.724;2023-12-20T09:54:32;100642.22;;;7.12;100.00
39265;BME280;42646;51.910;7.724;2023-12-20T09:57:00;100639.09;;;7.18;100.00
39265;BME280;42646;51.910;7.724;2023-12-20T09:59:27;100642.56;;;7.08;100.00
39265;BME280;42646;51.910;7.724;2023-12-20T10:01:55;100647.88;;;7.19;100.00
39265;BME280;42646;51.910;7.724;2023-12-20T10:04:24;100647.63;;;7.22;100.00
39265;BME280;42646;51.910;7.724;2023-12-20T10:06:56;100639.22;;;7.28;100.00
39265;BME280;42646;51.910;7.724;2023-12-20T10:09:26;100642.25;;;7.23;100.00
39265;BME280;42646;51.910;7.724;2023-12-20T10:11:55;100636.59;;;7.28;100.00
39265;BME280;42646;51.910;7.724;2023-12-20T10:14:23;100646.34;;;7.39;100.00
39265;BME280;42646;51.910;7.724;2023-12-20T10:16:51;100641.91;;;7.39;100.00
39265;BME280;42646;51.910;7.724;2023-12-20T10:19:20;100655.38;;;7.36;100.00
39265;BME280;42646;51.910;7.724;2023-12-20T10:21:47;100637.19;;;7.32;100.00
39265;BME280;42646;51.910;7.724;2023-12-20T10:24:17;100648.38;;;7.46;100.00
39265;BME280;42646;51.910;7.724;2023-12-20T10:26:46;100650.44;;;7.43;100.00
39265;BME280;42646;51.910;7.724;2023-12-20T10:29:14;100639.38;;;7.38;100.00
39265;BME280;42646;51.910;7.724;2023-12-20T10:31:42;100640.94;;;7.40;100.00
39265;BME280;42646;51.910;7.724;2023-12-20T10:34:11;100635.78;;;7.50;100.00
39265;BME280;42646;51.910;7.724;2023-12-20T10:36:39;100635.78;;;7.50;100.00
39265;BME280;42646;51.910;7.724;2023-12-20T10:39:08;100625.31;;;7.48;100.00
39265;BME280;42646;51.910;7.724;2023-12-20T10:41:36;100637.44;;;7.40;100.00
39265;BME280;42646;51.910;7.724;2023-12-20T10:44:10;100637.44;;;7.40;100.00
39265;BME280;42646;51.910;7.724;2023-12-20T10:46:39;100639.72;;;7.33;100.00
39265;BME280;42646;51.910;7.724;2023-12-20T10:49:08;100633.84;;;7.30;100.00
39265;BME280;42646;51.910;7.724;2023-12-20T10:51:37;100633.38;;;7.36;100.00
39265;BME280;42646;51.910;7.724;2023-12-20T10:54:05;100621.53;;;7.29;100.00
39265;BME280;42646;51.910;7.724;2023-12-20T10:56:36;100631.19;;;7.41;100.00
39265;BME280;42646;51.910;7.724;2023-12-20T10:59:06;100624.69;;;7.34;100.00
39265;BME280;42646;51.910;7.724;2023-12-20T11:01:38;100617.72;;;7.33;100.00
39265;BME280;42646;51.910;7.724;2023-12-20T11:04:10;100628.16;;;7.34;100.00
39265;BME280;42646;51.910;7.724;2023-12-20T11:06:47;100639.00;;;7.31;100.00
39265;BME280;42646;51.910;7.724;2023-12-20T11:09:22;100636.00;;;7.25;100.00
39265;BME280;42646;51.910;7.724;2023-12-20T11:12:06;100634.31;;;7.23;100.00
39265;BME280;42646;51.910;7.724;2023-12-20T11:14:41;100639.97;;;7.30;100.00
39265;BME280;42646;51.910;7.724;2023-12-20T11:17:11;100622.16;;;7.32;100.00
39265;BME280;42646;51.910;7.724;2023-12-20T11:20:04;100627.94;;;7.26;100.00
39265;BME280;42646;51.910;7.724;2023-12-20T11:22:33;100626.84;;;7.29;100.00
39265;BME280;42646;51.910;7.724;2023-12-20T11:25:08;100615.31;;;7.30;100.00
39265;BME280;42646;51.910;7.724;2023-12-20T11:27:36;100614.34;;;7.31;100.00
39265;BME280;42646;51.910;7.724;2023-12-20T11:30:04;100595.34;;;7.26;100.00
39265;BME280;42646;51.910;7.724;2023-12-20T11:32:35;100584.03;;;7.23;100.00
39265;BME280;42646;51.910;7.724;2023-12-20T11:35:17;100574.28;;;7.24;100.00
39265;BME280;42646;51.910;7.724;2023-12-20T11:37:46;100572.00;;;7.31;100.00
39265;BME280;42646;51.910;7.724;2023-12-20T11:40:16;100569.09;;;7.34;100.00
39265;BME280;42646;51.910;7.724;2023-12-20T11:42:48;100561.66;;;7.39;100.00
39265;BME280;42646;51.910;7.724;2023-12-20T11:45:18;100561.53;;;7.40;100.00
39265;BME280;42646;51.910;7.724;2023-12-20T11:47:50;100555.66;;;7.48;100.00
39265;BME280;42646;51.910;7.724;2023-12-20T11:50:21;100562.16;;;7.55;100.00
39265;BME280;42646;51.910;7.724;2023-12-20T11:52:51;100549.75;;;7.56;100.00
39265;BME280;42646;51.910;7.724;2023-12-20T11:55:19;100549.38;;;7.60;100.00
39265;BME280;42646;51.910;7.724;2023-12-20T11:57:47;100565.75;;;7.54;100.00
39265;BME280;42646;51.910;7.724;2023-12-20T12:00:16;100550.34;;;7.59;100.00
39265;BME280;42646;51.910;7.724;2023-12-20T12:02:56;100557.81;;;7.54;100.00
39265;BME280;42646;51.910;7.724;2023-12-20T12:05:24;100549.13;;;7.63;100.00
39265;BME280;42646;51.910;7.724;2023-12-20T12:07:52;100552.25;;;7.57;100.00
39265;BME280;42646;51.910;7.724;2023-12-20T12:10:22;100542.41;;;7.59;100.00
39265;BME280;42646;51.910;7.724;2023-12-20T12:12:50;100539.63;;;7.61;100.00
39265;BME280;42646;51.910;7.724;2023-12-20T12:15:18;100530.38;;;7.66;100.00
39265;BME280;42646;51.910;7.724;2023-12-20T12:17:52;100527.81;;;7.76;100.00
39265;BME280;42646;51.910;7.724;2023-12-20T12:20:22;100526.00;;;7.76;100.00
39265;BME280;42646;51.910;7.724;2023-12-20T12:22:59;100527.81;;;7.76;100.00
39265;BME280;42646;51.910;7.724;2023-12-20T12:25:28;100524.28;;;7.87;100.00
39265;BME280;42646;51.910;7.724;2023-12-20T12:27:58;100528.19;;;7.83;100.00
39265;BME280;42646;51.910;7.724;2023-12-20T12:30:26;100535.03;;;7.85;100.00
39265;BME280;42646;51.910;7.724;2023-12-20T12:33:03;100517.66;;;7.92;100.00
39265;BME280;42646;51.910;7.724;2023-12-20T12:35:32;100529.38;;;7.90;100.00
39265;BME280;42646;51.910;7.724;2023-12-20T12:38:01;100537.31;;;7.90;100.00
39265;BME280;42646;51.910;7.724;2023-12-20T12:40:29;100542.34;;;7.93;100.00
39265;BME280;42646;51.910;7.724;2023-12-20T12:42:57;100536.06;;;7.94;100.00
39265;BME280;42646;51.910;7.724;2023-12-20T12:45:25;100531.16;;;7.89;100.00
39265;BME280;42646;51.910;7.724;2023-12-20T12:47:53;100540.28;;;7.96;100.00
39265;BME280;42646;51.910;7.724;2023-12-20T12:50:21;100534.25;;;7.94;100.00
39265;BME280;42646;51.910;7.724;2023-12-20T12:52:50;100538.16;;;7.90;100.00
39265;BME280;42646;51.910;7.724;2023-12-20T12:55:18;100534.88;;;7.87;100.00
39265;BME280;42646;51.910;7.724;2023-12-20T12:57:46;100524.63;;;7.93;100.00